createdAt,value
2019-05-25T00:01:31.613Z,8.70
2019-05-25T00:04:00.245Z,8.47
2019-05-25T00:06:28.941Z,9.43
2019-05-25T00:08:57.622Z,8.00
2019-05-25T00:11:26.419Z,9.10
2019-05-25T00:13:54.834Z,8.93
2019-05-25T00:16:23.287Z,8.93
2019-05-25T00:18:51.677Z,8.40
2019-05-25T00:21:20.075Z,8.17
2019-05-25T00:23:48.458Z,8.77
2019-05-25T00:26:16.858Z,8.47
2019-05-25T00:28:45.514Z,8.77
2019-05-25T00:31:13.960Z,8.90
2019-05-25T00:33:42.685Z,8.80
2019-05-25T00:36:11.068Z,8.77
2019-05-25T00:38:39.439Z,8.53
2019-05-25T00:41:07.837Z,8.97
2019-05-25T00:43:36.242Z,9.57
2019-05-25T00:46:04.698Z,9.67
2019-05-25T00:48:33.176Z,8.67
2019-05-25T00:51:01.515Z,9.17
2019-05-25T00:53:30.162Z,9.03
2019-05-25T00:55:58.855Z,8.83
2019-05-25T00:58:27.234Z,9.10
2019-05-25T01:00:55.704Z,9.90
2019-05-25T01:03:24.408Z,9.17
2019-05-25T01:05:52.800Z,8.90
2019-05-25T01:08:21.192Z,9.10
2019-05-25T01:10:49.592Z,8.93
2019-05-25T01:13:18.268Z,9.97
2019-05-25T01:15:46.659Z,9.20
2019-05-25T01:18:15.048Z,9.23
2019-05-25T01:20:43.996Z,9.50
2019-05-25T01:23:12.398Z,10.30
2019-05-25T01:25:41.076Z,9.30
2019-05-25T01:28:09.467Z,9.30
2019-05-25T01:30:37.837Z,9.33
2019-05-25T01:33:06.557Z,9.00
2019-05-25T01:35:34.954Z,9.57
2019-05-25T01:38:04.025Z,9.20
2019-05-25T01:40:32.425Z,9.87
2019-05-25T01:43:00.803Z,9.60
2019-05-25T01:45:29.482Z,9.60
2019-05-25T01:47:57.917Z,10.00
2019-05-25T01:50:26.306Z,10.20
2019-05-25T01:52:54.938Z,10.37
2019-05-25T01:55:23.339Z,10.40
2019-05-25T01:57:52.016Z,10.83
2019-05-25T02:00:22.116Z,10.93
2019-05-25T02:02:50.530Z,10.47
2019-05-25T02:05:19.088Z,10.37
2019-05-25T02:07:47.481Z,10.40
2019-05-25T02:10:16.200Z,11.30
2019-05-25T02:12:44.585Z,10.60
2019-05-25T02:15:13.911Z,9.80
2019-05-25T02:17:42.491Z,10.97
2019-05-25T02:20:11.543Z,10.60
2019-05-25T02:22:39.936Z,10.77
2019-05-25T02:25:17.662Z,11.20
2019-05-25T02:27:40.741Z,10.90
2019-05-25T02:30:11.679Z,11.40
2019-05-25T02:32:40.067Z,12.27
2019-05-25T02:35:08.907Z,12.07
2019-05-25T02:37:37.328Z,12.10
2019-05-25T02:40:07.629Z,11.67
2019-05-25T02:42:39.393Z,12.90
2019-05-25T02:45:08.242Z,11.97
2019-05-25T02:47:36.633Z,12.43
2019-05-25T02:50:07.128Z,16.53
2019-05-25T02:52:35.507Z,12.90
2019-05-25T02:55:04.338Z,12.47
2019-05-25T02:57:32.751Z,11.70
2019-05-25T03:00:01.447Z,12.27
2019-05-25T03:02:29.834Z,11.50
2019-05-25T03:04:58.323Z,12.07
2019-05-25T03:07:27.098Z,11.83
2019-05-25T03:09:56.550Z,12.10
2019-05-25T03:12:25.206Z,11.50
2019-05-25T03:14:53.607Z,11.80
2019-05-25T03:17:22.011Z,12.50
2019-05-25T03:19:50.453Z,12.40
2019-05-25T03:22:18.951Z,11.80
2019-05-25T03:24:47.340Z,12.27
2019-05-25T03:27:15.756Z,12.87
2019-05-25T03:29:44.147Z,12.80
2019-05-25T03:32:12.992Z,11.43
2019-05-25T03:34:43.206Z,12.87
2019-05-25T03:37:11.937Z,11.60
2019-05-25T03:39:40.413Z,12.63
2019-05-25T03:42:08.785Z,11.67
2019-05-25T03:44:37.196Z,11.93
2019-05-25T03:47:05.657Z,11.73
2019-05-25T03:49:34.062Z,11.77
2019-05-25T03:52:02.712Z,11.67
2019-05-25T03:54:31.098Z,12.60
2019-05-25T03:56:59.499Z,12.70
2019-05-25T03:59:27.912Z,13.13
2019-05-25T04:01:56.552Z,13.87
2019-05-25T04:04:24.944Z,12.63
2019-05-25T04:06:53.350Z,11.67
2019-05-25T04:09:21.739Z,11.30
2019-05-25T04:11:50.125Z,10.77
2019-05-25T04:14:18.534Z,12.30
2019-05-25T04:16:46.929Z,11.47
2019-05-25T04:19:15.643Z,12.20
2019-05-25T04:21:44.049Z,11.23
2019-05-25T04:24:15.617Z,11.93
2019-05-25T04:26:43.999Z,13.37
2019-05-25T04:29:12.758Z,13.53
2019-05-25T04:31:41.162Z,13.60
2019-05-25T04:34:09.554Z,13.27
2019-05-25T04:36:38.222Z,12.43
2019-05-25T04:39:08.254Z,13.97
2019-05-25T04:41:36.646Z,12.87
2019-05-25T04:44:05.619Z,12.40
2019-05-25T04:46:34.308Z,13.40
2019-05-25T04:49:02.950Z,14.13
2019-05-25T04:51:31.694Z,13.63
2019-05-25T04:54:00.099Z,14.30
2019-05-25T04:56:38.733Z,14.80
2019-05-25T04:58:58.982Z,14.30
2019-05-25T05:01:27.383Z,13.83
2019-05-25T05:03:55.766Z,13.83
2019-05-25T05:06:24.545Z,14.10
2019-05-25T05:08:53.326Z,15.50
2019-05-25T05:11:21.718Z,15.20
2019-05-25T05:13:50.177Z,14.63
2019-05-25T05:16:18.587Z,15.00
2019-05-25T05:18:46.973Z,16.10
2019-05-25T05:21:15.384Z,15.80
2019-05-25T05:23:43.822Z,15.93
2019-05-25T05:26:12.198Z,15.97
2019-05-25T05:28:40.595Z,17.40
2019-05-25T05:31:22.639Z,14.67
2019-05-25T05:33:39.981Z,16.03
2019-05-25T05:36:09.340Z,17.13
2019-05-25T05:38:38.692Z,21.27
2019-05-25T05:41:09.039Z,16.13
2019-05-25T05:43:39.580Z,18.23
2019-05-25T05:46:09.582Z,17.77
2019-05-25T05:48:40.516Z,17.53
2019-05-25T05:51:11.498Z,15.80
2019-05-25T05:53:41.098Z,17.10
2019-05-25T05:56:09.845Z,17.77
2019-05-25T05:58:38.308Z,15.57
2019-05-25T06:01:06.781Z,17.33
2019-05-25T06:03:35.163Z,15.40
2019-05-25T06:06:03.582Z,17.17
2019-05-25T06:08:31.967Z,16.07
2019-05-25T06:11:00.730Z,16.60
2019-05-25T06:13:29.148Z,16.23
2019-05-25T06:15:57.543Z,18.30
2019-05-25T06:18:25.940Z,18.07
2019-05-25T06:20:54.332Z,16.30
2019-05-25T06:23:22.730Z,18.00
2019-05-25T06:25:51.433Z,17.80
2019-05-25T06:28:22.415Z,17.90
2019-05-25T06:30:49.965Z,19.43
2019-05-25T06:33:18.358Z,19.43
2019-05-25T06:35:46.768Z,19.40
2019-05-25T06:38:15.187Z,23.60
2019-05-25T06:40:43.574Z,22.53
2019-05-25T06:43:11.954Z,19.13
2019-05-25T06:45:40.363Z,19.90
2019-05-25T06:48:08.777Z,19.17
2019-05-25T06:50:37.157Z,23.33
2019-05-25T06:53:05.569Z,22.50
2019-05-25T06:55:33.964Z,23.20
2019-05-25T06:58:02.653Z,34.43
2019-05-25T07:00:31.288Z,39.67
2019-05-25T07:02:59.681Z,38.60
2019-05-25T07:05:28.063Z,47.83
2019-05-25T07:07:56.479Z,43.33
2019-05-25T07:10:24.888Z,39.77
2019-05-25T07:12:53.570Z,35.73
2019-05-25T07:15:22.361Z,38.07
2019-05-25T07:17:50.926Z,44.60
2019-05-25T07:20:19.491Z,43.53
2019-05-25T07:22:47.896Z,39.83
2019-05-25T07:25:20.001Z,38.93
2019-05-25T07:27:58.759Z,36.57
2019-05-25T07:30:20.339Z,42.10
2019-05-25T07:32:48.759Z,36.50
2019-05-25T07:35:17.732Z,33.90
2019-05-25T07:37:46.462Z,32.00
2019-05-25T07:40:15.140Z,30.70
2019-05-25T07:42:48.244Z,23.77
2019-05-25T07:45:17.323Z,27.70
2019-05-25T07:47:45.826Z,33.77
2019-05-25T07:50:20.168Z,24.63
2019-05-25T07:52:48.516Z,24.23
2019-05-25T07:55:16.954Z,20.83
2019-05-25T07:57:45.381Z,18.60
2019-05-25T08:00:14.168Z,16.43
2019-05-25T08:02:42.943Z,15.37
2019-05-25T08:05:11.570Z,16.43
2019-05-25T08:07:39.964Z,15.60
2019-05-25T08:10:08.938Z,17.17
2019-05-25T08:12:37.415Z,17.03
2019-05-25T08:15:07.045Z,16.50
2019-05-25T08:17:35.885Z,15.80
2019-05-25T08:20:07.175Z,13.83
2019-05-25T08:22:35.708Z,15.40
2019-05-25T08:25:06.796Z,13.00
2019-05-25T08:27:35.187Z,14.40
2019-05-25T08:30:05.544Z,14.13
2019-05-25T08:32:33.931Z,14.23
2019-05-25T08:35:02.343Z,13.53
2019-05-25T08:37:30.746Z,13.43
2019-05-25T08:39:59.148Z,14.57
2019-05-25T08:42:31.864Z,14.60
2019-05-25T08:45:00.589Z,14.13
2019-05-25T08:47:29.278Z,16.53
2019-05-25T08:49:57.677Z,15.50
2019-05-25T08:52:26.293Z,16.40
2019-05-25T08:54:56.614Z,15.57
2019-05-25T08:57:24.915Z,16.50
2019-05-25T08:59:53.551Z,17.20
2019-05-25T09:02:21.962Z,16.90
2019-05-25T09:04:50.365Z,19.83
2019-05-25T09:07:18.758Z,18.83
2019-05-25T09:09:47.418Z,19.07
2019-05-25T09:12:16.080Z,20.67
2019-05-25T09:14:44.471Z,25.50
2019-05-25T09:17:12.877Z,21.33
2019-05-25T09:19:41.588Z,20.17
2019-05-25T09:22:09.990Z,21.20
2019-05-25T09:24:38.373Z,20.10
2019-05-25T09:27:06.774Z,20.03
2019-05-25T09:29:35.263Z,21.77
2019-05-25T09:32:06.884Z,19.20
2019-05-25T09:34:33.784Z,21.37
2019-05-25T09:37:02.174Z,24.20
2019-05-25T09:39:36.574Z,27.50
2019-05-25T09:42:05.880Z,24.67
2019-05-25T09:47:19.360Z,22.23
2019-05-25T09:49:47.734Z,24.90
2019-05-25T09:52:16.212Z,26.25
2019-05-25T09:54:44.658Z,25.30
2019-05-25T09:57:13.624Z,25.30
2019-05-25T09:59:44.135Z,24.30
2019-05-25T10:02:12.592Z,22.20
2019-05-25T10:04:41.311Z,23.43
2019-05-25T10:07:09.783Z,23.53
2019-05-25T10:09:40.155Z,24.33
2019-05-25T10:12:09.589Z,24.37
2019-05-25T10:14:38.012Z,23.47
2019-05-25T10:17:06.711Z,23.37
2019-05-25T10:19:35.221Z,23.17
2019-05-25T10:22:04.535Z,23.17
2019-05-25T10:24:33.243Z,22.97
2019-05-25T10:27:02.520Z,21.73
2019-05-25T10:29:37.108Z,22.13
2019-05-25T10:32:02.368Z,23.20
2019-05-25T10:34:34.412Z,23.30
2019-05-25T10:37:02.966Z,21.83
2019-05-25T10:39:31.648Z,22.13
2019-05-25T10:42:00.174Z,22.80
2019-05-25T10:44:28.590Z,23.53
2019-05-25T10:46:56.990Z,20.90
2019-05-25T10:49:25.400Z,21.53
2019-05-25T10:51:53.788Z,21.47
2019-05-25T10:54:22.190Z,20.07
2019-05-25T10:56:50.639Z,21.07
2019-05-25T10:59:19.065Z,21.77
2019-05-25T11:01:47.510Z,20.50
2019-05-25T11:04:15.878Z,21.73
2019-05-25T11:06:44.282Z,21.47
2019-05-25T11:09:12.675Z,20.20
2019-05-25T11:11:41.103Z,20.47
2019-05-25T11:14:09.502Z,21.07
2019-05-25T11:16:38.664Z,21.13
2019-05-25T11:19:07.369Z,21.53
2019-05-25T11:21:35.834Z,20.67
2019-05-25T11:24:04.250Z,21.97
2019-05-25T11:26:32.780Z,22.53
2019-05-25T11:29:01.209Z,22.03
2019-05-25T11:31:29.783Z,22.30
2019-05-25T11:33:58.191Z,21.60
2019-05-25T11:36:26.598Z,23.63
2019-05-25T11:38:54.997Z,21.60
2019-05-25T11:41:23.633Z,22.33
2019-05-25T11:43:52.030Z,22.37
2019-05-25T11:46:20.927Z,20.57
2019-05-25T11:48:49.380Z,20.93
2019-05-25T11:51:17.712Z,21.60
2019-05-25T11:53:46.143Z,21.43
2019-05-25T11:56:14.853Z,22.80
2019-05-25T11:58:47.368Z,22.53
2019-05-25T12:01:13.374Z,20.70
2019-05-25T12:03:41.766Z,21.67
2019-05-25T12:06:10.440Z,21.50
2019-05-25T12:08:38.843Z,22.37
2019-05-25T12:11:07.234Z,23.17
2019-05-25T12:13:35.669Z,22.00
2019-05-25T12:16:04.481Z,22.93
2019-05-25T12:18:32.910Z,21.60
2019-05-25T12:21:01.289Z,22.43
2019-05-25T12:23:29.685Z,21.17
2019-05-25T12:25:58.128Z,20.83
2019-05-25T12:28:26.534Z,20.00
2019-05-25T12:30:55.329Z,20.87
2019-05-25T12:33:23.730Z,20.83
2019-05-25T12:35:52.193Z,20.40
2019-05-25T12:38:20.575Z,20.43
2019-05-25T12:40:53.475Z,21.20
2019-05-25T12:43:19.094Z,20.53
2019-05-25T12:45:47.562Z,20.07
2019-05-25T12:48:15.955Z,19.67
2019-05-25T12:50:44.354Z,19.73
2019-05-25T12:53:12.948Z,21.93
2019-05-25T12:55:41.411Z,20.80
2019-05-25T12:58:09.985Z,20.67
2019-05-25T13:00:38.445Z,18.40
2019-05-25T13:03:10.349Z,19.90
2019-05-25T13:05:37.006Z,19.43
2019-05-25T13:08:05.424Z,19.60
2019-05-25T13:10:33.790Z,19.60
2019-05-25T13:13:02.430Z,20.70
2019-05-25T13:15:30.888Z,18.70
2019-05-25T13:17:59.299Z,18.93
2019-05-25T13:20:27.681Z,17.97
2019-05-25T13:22:56.088Z,17.33
2019-05-25T13:25:24.490Z,18.27
2019-05-25T13:27:52.871Z,19.30
2019-05-25T13:30:21.420Z,17.70
2019-05-25T13:32:49.829Z,20.20
2019-05-25T13:35:18.478Z,18.67
2019-05-25T13:37:47.163Z,17.67
2019-05-25T13:40:16.502Z,19.63
2019-05-25T13:42:44.885Z,19.63
2019-05-25T13:45:13.865Z,19.17
2019-05-25T13:47:42.263Z,20.90
2019-05-25T13:50:11.515Z,19.53
2019-05-25T13:52:39.902Z,19.50
2019-05-25T13:55:09.379Z,18.77
2019-05-25T13:57:37.915Z,17.43
2019-05-25T14:00:08.815Z,18.00
2019-05-25T14:02:37.236Z,17.93
2019-05-25T14:05:09.085Z,18.77
2019-05-25T14:07:37.632Z,17.43
2019-05-25T14:10:07.588Z,17.60
2019-05-25T14:12:36.046Z,17.00
2019-05-25T14:15:07.526Z,15.50
2019-05-25T14:17:36.345Z,16.63
2019-05-25T14:20:05.993Z,17.10
2019-05-25T14:22:34.468Z,16.40
2019-05-25T14:25:05.424Z,15.73
2019-05-25T14:27:34.363Z,16.70
2019-05-25T14:30:02.745Z,17.13
2019-05-25T14:32:31.148Z,16.27
2019-05-25T14:34:59.554Z,16.40
2019-05-25T14:37:28.211Z,14.60
2019-05-25T14:40:04.300Z,16.17
2019-05-25T14:42:31.934Z,15.70
2019-05-25T14:45:00.369Z,16.17
2019-05-25T14:47:28.839Z,15.80
2019-05-25T14:49:57.231Z,13.57
2019-05-25T14:52:30.294Z,13.70
2019-05-25T14:54:58.686Z,12.13
2019-05-25T14:57:27.164Z,12.53
2019-05-25T14:59:55.777Z,12.97
2019-05-25T15:02:24.180Z,11.63
2019-05-25T15:04:52.650Z,11.50
2019-05-25T15:07:21.043Z,10.97
2019-05-25T15:09:49.463Z,10.20
2019-05-25T15:12:17.874Z,13.17
2019-05-25T15:14:46.272Z,11.90
2019-05-25T15:17:14.653Z,11.60
2019-05-25T15:19:43.140Z,12.40
2019-05-25T15:22:11.728Z,13.00
2019-05-25T15:24:40.278Z,13.17
2019-05-25T15:27:08.702Z,14.00
2019-05-25T15:29:38.682Z,12.60
2019-05-25T15:32:19.461Z,12.23
2019-05-25T15:34:41.573Z,12.57
2019-05-25T15:37:10.044Z,13.27
2019-05-25T15:39:38.454Z,12.10
2019-05-25T15:42:06.852Z,13.30
2019-05-25T15:44:35.247Z,11.23
2019-05-25T15:47:04.944Z,14.13
2019-05-25T15:49:34.016Z,13.10
2019-05-25T15:52:02.445Z,12.77
2019-05-25T15:54:30.849Z,11.97
2019-05-25T15:56:59.271Z,14.13
2019-05-25T15:59:27.672Z,10.90
2019-05-25T16:01:56.056Z,14.60
2019-05-25T16:04:24.462Z,12.20
2019-05-25T16:06:53.136Z,11.17
2019-05-25T16:09:21.557Z,12.53
2019-05-25T16:11:49.947Z,10.30
2019-05-25T16:14:18.363Z,11.30
2019-05-25T16:16:46.757Z,10.87
2019-05-25T16:19:15.217Z,10.10
2019-05-25T16:21:46.112Z,10.77
2019-05-25T16:24:20.424Z,10.87
2019-05-25T16:26:48.924Z,10.90
2019-05-25T16:29:17.657Z,10.73
2019-05-25T16:31:46.024Z,11.30
2019-05-25T16:34:14.495Z,12.33
2019-05-25T16:36:42.904Z,11.60
2019-05-25T16:39:11.295Z,10.17
2019-05-25T16:41:39.731Z,10.23
2019-05-25T16:44:09.898Z,9.13
2019-05-25T16:46:38.570Z,9.70
2019-05-25T16:49:09.761Z,9.13
2019-05-25T16:51:38.199Z,9.90
2019-05-25T16:54:06.652Z,10.80
2019-05-25T16:56:35.091Z,11.40
2019-05-25T16:59:06.319Z,10.57
2019-05-25T17:01:47.694Z,9.50
2019-05-25T17:04:05.584Z,9.80
2019-05-25T17:06:36.154Z,9.57
2019-05-25T17:09:10.168Z,10.03
2019-05-25T17:11:39.041Z,10.57
2019-05-25T17:14:09.538Z,10.23
2019-05-25T17:16:40.502Z,10.40
2019-05-25T17:19:09.223Z,9.30
2019-05-25T17:21:37.628Z,10.33
2019-05-25T17:24:06.019Z,10.20
2019-05-25T17:26:34.655Z,10.97
2019-05-25T17:29:03.331Z,10.80
2019-05-25T17:31:33.597Z,14.33
2019-05-25T17:34:01.958Z,26.47
2019-05-25T17:36:30.364Z,64.50
2019-05-25T17:38:58.759Z,84.17
2019-05-25T17:41:27.151Z,25.00
2019-05-25T17:43:55.579Z,16.93
2019-05-25T17:46:24.001Z,13.53
2019-05-25T17:48:53.927Z,11.63
2019-05-25T17:51:22.328Z,12.27
2019-05-25T17:53:50.736Z,9.60
2019-05-25T17:56:19.436Z,11.10
2019-05-25T17:58:47.845Z,10.40
2019-05-25T18:01:16.249Z,11.07
2019-05-25T18:04:04.257Z,10.13
2019-05-25T18:06:17.822Z,10.00
2019-05-25T18:08:46.211Z,10.43
2019-05-25T18:11:14.674Z,8.97
2019-05-25T18:13:43.450Z,10.57
2019-05-25T18:16:11.907Z,10.40
2019-05-25T18:18:40.307Z,10.63
2019-05-25T18:21:08.709Z,11.13
2019-05-25T18:23:38.088Z,10.53
2019-05-25T18:26:06.732Z,11.60
2019-05-25T18:28:35.114Z,9.90
2019-05-25T18:31:03.504Z,10.10
2019-05-25T18:33:31.935Z,10.20
2019-05-25T18:36:00.350Z,10.47
2019-05-25T18:38:29.026Z,10.40
2019-05-25T18:40:57.505Z,11.07
2019-05-25T18:43:30.438Z,9.33
2019-05-25T18:45:58.825Z,10.40
2019-05-25T18:48:27.275Z,9.30
2019-05-25T18:50:55.844Z,10.30
2019-05-25T18:53:24.398Z,9.97
2019-05-25T18:55:52.770Z,9.93
2019-05-25T18:58:21.543Z,10.60
2019-05-25T19:00:50.029Z,12.70
2019-05-25T19:03:18.477Z,10.80
2019-05-25T19:05:46.881Z,11.00
2019-05-25T19:08:15.555Z,10.97
2019-05-25T19:10:44.390Z,10.40
2019-05-25T19:13:12.769Z,10.50
2019-05-25T19:15:41.273Z,11.20
2019-05-25T19:18:09.705Z,10.60
2019-05-25T19:20:38.099Z,10.30
2019-05-25T19:23:06.496Z,10.67
2019-05-25T19:25:34.892Z,10.97
2019-05-25T19:28:03.458Z,10.10
2019-05-25T19:30:31.865Z,10.70
2019-05-25T19:33:00.247Z,10.17
2019-05-25T19:35:28.636Z,9.47
2019-05-25T19:37:57.029Z,9.37
2019-05-25T19:40:25.432Z,10.40
2019-05-25T19:42:53.861Z,10.80
2019-05-25T19:45:22.590Z,10.43
2019-05-25T19:47:50.993Z,10.83
2019-05-25T19:50:19.807Z,10.67
2019-05-25T19:52:48.244Z,10.93
2019-05-25T19:55:16.701Z,10.20
2019-05-25T19:57:45.616Z,10.33
2019-05-25T20:00:14.916Z,10.00
2019-05-25T20:02:43.401Z,11.20
2019-05-25T20:05:16.999Z,9.83
2019-05-25T20:07:42.299Z,10.03
2019-05-25T20:10:11.664Z,11.20
2019-05-25T20:12:40.068Z,10.50
2019-05-25T20:15:09.424Z,10.17
2019-05-25T20:17:37.882Z,10.70
2019-05-25T20:20:07.472Z,9.90
2019-05-25T20:22:35.833Z,10.60
2019-05-25T20:25:06.745Z,10.93
2019-05-25T20:27:35.202Z,12.47
2019-05-25T20:30:07.244Z,11.80
2019-05-25T20:32:35.678Z,11.57
2019-05-25T20:35:05.852Z,11.70
2019-05-25T20:37:34.255Z,10.90
2019-05-25T20:40:02.769Z,11.33
2019-05-25T20:42:31.268Z,11.83
2019-05-25T20:44:59.668Z,12.23
2019-05-25T20:47:28.071Z,11.37
2019-05-25T20:49:56.479Z,11.17
2019-05-25T20:52:24.870Z,12.50
2019-05-25T20:54:53.354Z,12.77
2019-05-25T20:57:21.748Z,12.10
2019-05-25T20:59:50.366Z,11.57
2019-05-25T21:02:18.789Z,12.67
2019-05-25T21:04:47.180Z,11.70
2019-05-25T21:07:15.855Z,13.37
2019-05-25T21:09:44.264Z,11.73
2019-05-25T21:12:13.127Z,11.80
2019-05-25T21:14:41.534Z,12.57
2019-05-25T21:17:09.944Z,11.73
2019-05-25T21:19:38.347Z,12.37
2019-05-25T21:22:06.764Z,11.70
2019-05-25T21:24:35.146Z,10.90
2019-05-25T21:27:04.460Z,11.03
2019-05-25T21:29:32.879Z,11.20
2019-05-25T21:32:01.456Z,11.37
2019-05-25T21:34:29.841Z,11.40
2019-05-25T21:36:58.235Z,11.73
2019-05-25T21:39:26.642Z,11.40
2019-05-25T21:41:55.366Z,12.47
2019-05-25T21:44:24.201Z,12.20
2019-05-25T21:46:52.817Z,13.80
2019-05-25T21:49:21.459Z,13.37
2019-05-25T21:51:49.941Z,15.10
2019-05-25T21:54:18.384Z,13.80
2019-05-25T21:56:46.769Z,15.90
2019-05-25T21:59:15.167Z,17.20
2019-05-25T22:01:43.562Z,19.93
2019-05-25T22:04:12.029Z,23.13
2019-05-25T22:06:40.631Z,23.87
2019-05-25T22:09:09.037Z,24.70
2019-05-25T22:11:37.435Z,23.17
2019-05-25T22:14:05.911Z,21.67
2019-05-25T22:16:34.338Z,21.27
2019-05-25T22:19:07.223Z,20.30
2019-05-25T22:21:37.228Z,19.33
2019-05-25T22:24:05.619Z,20.10
2019-05-25T22:26:34.348Z,20.13
2019-05-25T22:29:03.038Z,18.43
2019-05-25T22:31:31.440Z,17.30
2019-05-25T22:34:02.872Z,16.40
2019-05-25T22:36:40.200Z,16.20
2019-05-25T22:39:01.712Z,15.37
2019-05-25T22:41:30.171Z,16.30
2019-05-25T22:43:58.874Z,17.07
2019-05-25T22:46:27.281Z,14.37
2019-05-25T22:48:55.952Z,14.40
2019-05-25T22:51:24.460Z,15.50
2019-05-25T22:53:52.846Z,15.47
2019-05-25T22:56:21.606Z,15.60
2019-05-25T22:58:50.014Z,14.57
2019-05-25T23:01:18.674Z,15.50
2019-05-25T23:03:47.088Z,14.77
2019-05-25T23:06:15.553Z,15.60
2019-05-25T23:08:43.956Z,15.97
2019-05-25T23:11:12.347Z,15.53
2019-05-25T23:13:41.104Z,15.53
2019-05-25T23:16:11.129Z,14.47
2019-05-25T23:18:43.797Z,13.67
2019-05-25T23:21:12.222Z,15.57
2019-05-25T23:23:40.601Z,14.30
2019-05-25T23:26:09.265Z,13.60
2019-05-25T23:28:37.664Z,14.13
2019-05-25T23:31:06.049Z,15.00
2019-05-25T23:33:34.464Z,14.53
2019-05-25T23:36:02.871Z,14.70
2019-05-25T23:38:31.589Z,14.47
2019-05-25T23:40:59.986Z,14.93
2019-05-25T23:43:28.392Z,14.07
2019-05-25T23:45:56.784Z,15.90
2019-05-25T23:48:25.181Z,14.10
2019-05-25T23:50:53.910Z,15.00
2019-05-25T23:53:22.594Z,13.60
2019-05-25T23:55:51.500Z,14.10
2019-05-25T23:58:19.912Z,14.57
